sensor_id;sensor_type;location;lat;lon;timestamp;temperature;humidity
70851;DHT22;58475;49.662;9.636;2023-06-14T00:01:34;13.78;72.31
70851;DHT22;58475;49.662;9.636;2023-06-14T00:04:01;13.55;73.92
70851;DHT22;58475;49.662;9.636;2023-06-14T00:06:28;13.75;73.87
70851;DHT22;58475;49.662;9.636;2023-06-14T00:08:53;13.57;74.47
70851;DHT22;58475;49.662;9.636;2023-06-14T00:11:19;13.37;74.15
70851;DHT22;58475;49.662;9.636;2023-06-14T00:13:45;13.44;74.66
70851;DHT22;58475;49.662;9.636;2023-06-14T00:16:10;13.32;75.96
70851;DHT22;58475;49.662;9.636;2023-06-14T00:18:36;13.01;77.07
70851;DHT22;58475;49.662;9.636;2023-06-14T00:21:03;12.99;77.31
70851;DHT22;58475;49.662;9.636;2023-06-14T00:23:29;12.79;77.67
70851;DHT22;58475;49.662;9.636;2023-06-14T00:25:55;12.91;77.63
70851;DHT22;58475;49.662;9.636;2023-06-14T00:28:20;12.93;77.50
70851;DHT22;58475;49.662;9.636;2023-06-14T00:30:45;13.14;76.53
70851;DHT22;58475;49.662;9.636;2023-06-14T00:33:12;12.97;76.53
70851;DHT22;58475;49.662;9.636;2023-06-14T00:35:37;13.01;76.66
70851;DHT22;58475;49.662;9.636;2023-06-14T00:38:03;13.10;75.87
70851;DHT22;58475;49.662;9.636;2023-06-14T00:40:28;12.84;77.25
70851;DHT22;58475;49.662;9.636;2023-06-14T00:42:54;12.81;78.17
70851;DHT22;58475;49.662;9.636;2023-06-14T00:45:19;12.59;78.76
70851;DHT22;58475;49.662;9.636;2023-06-14T00:47:46;12.63;78.91
70851;DHT22;58475;49.662;9.636;2023-06-14T00:50:12;12.33;79.60
70851;DHT22;58475;49.662;9.636;2023-06-14T00:52:39;12.94;76.87
70851;DHT22;58475;49.662;9.636;2023-06-14T00:55:05;12.80;77.48
70851;DHT22;58475;49.662;9.636;2023-06-14T00:57:31;13.01;77.39
70851;DHT22;58475;49.662;9.636;2023-06-14T00:59:56;12.96;76.44
70851;DHT22;58475;49.662;9.636;2023-06-14T01:02:22;12.67;77.60
70851;DHT22;58475;49.662;9.636;2023-06-14T01:04:49;12.59;77.91
70851;DHT22;58475;49.662;9.636;2023-06-14T01:10:11;12.50;78.56
70851;DHT22;58475;49.662;9.636;2023-06-14T01:15:18;12.12;79.72
70851;DHT22;58475;49.662;9.636;2023-06-14T01:17:45;11.99;80.44
70851;DHT22;58475;49.662;9.636;2023-06-14T01:20:13;11.98;80.94
70851;DHT22;58475;49.662;9.636;2023-06-14T01:22:53;12.40;79.75
70851;DHT22;58475;49.662;9.636;2023-06-14T01:25:20;12.08;80.02
70851;DHT22;58475;49.662;9.636;2023-06-14T01:27:49;12.26;79.00
70851;DHT22;58475;49.662;9.636;2023-06-14T01:30:17;12.33;79.06
70851;DHT22;58475;49.662;9.636;2023-06-14T01:32:43;12.10;80.66
70851;DHT22;58475;49.662;9.636;2023-06-14T01:35:09;12.29;79.66
70851;DHT22;58475;49.662;9.636;2023-06-14T01:37:35;12.25;79.30
70851;DHT22;58475;49.662;9.636;2023-06-14T01:40:03;12.36;79.15
70851;DHT22;58475;49.662;9.636;2023-06-14T01:42:35;12.24;79.20
70851;DHT22;58475;49.662;9.636;2023-06-14T01:45:03;12.29;78.58
70851;DHT22;58475;49.662;9.636;2023-06-14T01:47:31;11.97;80.35
70851;DHT22;58475;49.662;9.636;2023-06-14T01:49:56;12.02;80.21
70851;DHT22;58475;49.662;9.636;2023-06-14T01:52:22;12.19;79.57
70851;DHT22;58475;49.662;9.636;2023-06-14T01:54:52;11.80;80.70
70851;DHT22;58475;49.662;9.636;2023-06-14T01:57:17;11.92;80.36
70851;DHT22;58475;49.662;9.636;2023-06-14T01:59:43;11.59;81.39
70851;DHT22;58475;49.662;9.636;2023-06-14T02:02:14;11.87;80.91
70851;DHT22;58475;49.662;9.636;2023-06-14T02:04:40;11.57;81.65
70851;DHT22;58475;49.662;9.636;2023-06-14T02:07:05;11.50;81.72
70851;DHT22;58475;49.662;9.636;2023-06-14T02:09:30;11.64;81.37
70851;DHT22;58475;49.662;9.636;2023-06-14T02:11:56;11.42;82.15
70851;DHT22;58475;49.662;9.636;2023-06-14T02:14:21;11.08;83.32
70851;DHT22;58475;49.662;9.636;2023-06-14T02:16:47;11.02;83.48
70851;DHT22;58475;49.662;9.636;2023-06-14T02:19:15;11.12;83.32
70851;DHT22;58475;49.662;9.636;2023-06-14T02:21:41;11.15;83.34
70851;DHT22;58475;49.662;9.636;2023-06-14T02:24:07;11.30;82.31
70851;DHT22;58475;49.662;9.636;2023-06-14T02:26:33;11.16;82.97
70851;DHT22;58475;49.662;9.636;2023-06-14T02:28:58;11.19;82.58
70851;DHT22;58475;49.662;9.636;2023-06-14T02:31:23;10.96;82.81
70851;DHT22;58475;49.662;9.636;2023-06-14T02:33:49;11.05;82.74
70851;DHT22;58475;49.662;9.636;2023-06-14T02:36:15;11.15;82.82
70851;DHT22;58475;49.662;9.636;2023-06-14T02:38:40;11.05;83.43
70851;DHT22;58475;49.662;9.636;2023-06-14T02:41:08;10.92;83.40
70851;DHT22;58475;49.662;9.636;2023-06-14T02:43:33;10.91;83.84
70851;DHT22;58475;49.662;9.636;2023-06-14T02:45:58;10.75;84.15
70851;DHT22;58475;49.662;9.636;2023-06-14T02:48:24;10.81;83.91
70851;DHT22;58475;49.662;9.636;2023-06-14T02:50:49;10.82;84.12
70851;DHT22;58475;49.662;9.636;2023-06-14T02:53:15;10.81;83.83
70851;DHT22;58475;49.662;9.636;2023-06-14T02:55:41;10.99;83.48
70851;DHT22;58475;49.662;9.636;2023-06-14T02:58:06;10.79;83.51
70851;DHT22;58475;49.662;9.636;2023-06-14T03:00:33;10.76;83.88
70851;DHT22;58475;49.662;9.636;2023-06-14T03:03:01;10.65;84.09
70851;DHT22;58475;49.662;9.636;2023-06-14T03:05:30;10.41;84.97
70851;DHT22;58475;49.662;9.636;2023-06-14T03:07:55;10.34;85.28
70851;DHT22;58475;49.662;9.636;2023-06-14T03:10:21;10.36;85.28
70851;DHT22;58475;49.662;9.636;2023-06-14T03:12:47;10.38;84.89
70851;DHT22;58475;49.662;9.636;2023-06-14T03:15:13;10.43;84.86
70851;DHT22;58475;49.662;9.636;2023-06-14T03:17:42;10.50;84.82
70851;DHT22;58475;49.662;9.636;2023-06-14T03:20:12;10.74;84.49
70851;DHT22;58475;49.662;9.636;2023-06-14T03:22:37;10.74;84.24
70851;DHT22;58475;49.662;9.636;2023-06-14T03:25:03;10.62;84.66
70851;DHT22;58475;49.662;9.636;2023-06-14T03:27:32;10.52;84.25
70851;DHT22;58475;49.662;9.636;2023-06-14T03:29:59;10.52;84.41
70851;DHT22;58475;49.662;9.636;2023-06-14T03:32:25;10.60;84.40
70851;DHT22;58475;49.662;9.636;2023-06-14T03:34:50;10.67;84.13
70851;DHT22;58475;49.662;9.636;2023-06-14T03:37:19;10.67;84.06
70851;DHT22;58475;49.662;9.636;2023-06-14T03:39:46;10.61;84.45
70851;DHT22;58475;49.662;9.636;2023-06-14T03:42:16;10.54;84.87
70851;DHT22;58475;49.662;9.636;2023-06-14T03:44:43;10.43;85.08
70851;DHT22;58475;49.662;9.636;2023-06-14T03:47:09;10.62;83.87
70851;DHT22;58475;49.662;9.636;2023-06-14T03:49:35;10.52;84.56
70851;DHT22;58475;49.662;9.636;2023-06-14T03:52:02;10.50;84.43
70851;DHT22;58475;49.662;9.636;2023-06-14T03:54:28;10.55;84.61
70851;DHT22;58475;49.662;9.636;2023-06-14T03:56:54;10.74;83.93
70851;DHT22;58475;49.662;9.636;2023-06-14T03:59:22;10.86;84.21
70851;DHT22;58475;49.662;9.636;2023-06-14T04:01:47;11.09;82.95
70851;DHT22;58475;49.662;9.636;2023-06-14T04:04:15;11.22;82.33
70851;DHT22;58475;49.662;9.636;2023-06-14T04:06:43;11.20;83.27
70851;DHT22;58475;49.662;9.636;2023-06-14T04:09:10;11.47;83.16
70851;DHT22;58475;49.662;9.636;2023-06-14T04:11:35;11.69;81.78
70851;DHT22;58475;49.662;9.636;2023-06-14T04:14:02;11.30;83.38
70851;DHT22;58475;49.662;9.636;2023-06-14T04:16:28;11.69;82.11
70851;DHT22;58475;49.662;9.636;2023-06-14T04:18:55;11.74;81.77
70851;DHT22;58475;49.662;9.636;2023-06-14T04:21:21;11.85;81.75
70851;DHT22;58475;49.662;9.636;2023-06-14T04:23:50;12.11;80.59
70851;DHT22;58475;49.662;9.636;2023-06-14T04:26:21;11.77;81.00
70851;DHT22;58475;49.662;9.636;2023-06-14T04:28:49;12.31;80.55
70851;DHT22;58475;49.662;9.636;2023-06-14T04:31:16;12.39;79.84
70851;DHT22;58475;49.662;9.636;2023-06-14T04:33:42;12.50;79.15
70851;DHT22;58475;49.662;9.636;2023-06-14T04:36:16;12.77;79.21
70851;DHT22;58475;49.662;9.636;2023-06-14T04:38:43;12.86;78.55
70851;DHT22;58475;49.662;9.636;2023-06-14T04:41:10;12.90;78.61
70851;DHT22;58475;49.662;9.636;2023-06-14T04:43:37;13.07;78.62
70851;DHT22;58475;49.662;9.636;2023-06-14T04:46:05;13.10;78.06
70851;DHT22;58475;49.662;9.636;2023-06-14T04:48:31;13.25;77.25
70851;DHT22;58475;49.662;9.636;2023-06-14T04:50:57;13.62;76.47
70851;DHT22;58475;49.662;9.636;2023-06-14T04:53:23;13.63;76.04
70851;DHT22;58475;49.662;9.636;2023-06-14T04:55:50;13.32;76.53
70851;DHT22;58475;49.662;9.636;2023-06-14T04:58:17;13.49;77.30
70851;DHT22;58475;49.662;9.636;2023-06-14T05:00:43;13.76;76.71
70851;DHT22;58475;49.662;9.636;2023-06-14T05:03:09;14.05;76.35
70851;DHT22;58475;49.662;9.636;2023-06-14T05:05:34;14.26;76.16
70851;DHT22;58475;49.662;9.636;2023-06-14T05:08:00;14.26;76.22
70851;DHT22;58475;49.662;9.636;2023-06-14T05:10:25;14.42;75.81
70851;DHT22;58475;49.662;9.636;2023-06-14T05:12:51;14.47;76.13
70851;DHT22;58475;49.662;9.636;2023-06-14T05:15:18;14.68;76.46
70851;DHT22;58475;49.662;9.636;2023-06-14T05:17:45;14.96;75.58
70851;DHT22;58475;49.662;9.636;2023-06-14T05:20:18;15.29;74.40
70851;DHT22;58475;49.662;9.636;2023-06-14T05:22:43;15.50;73.90
70851;DHT22;58475;49.662;9.636;2023-06-14T05:25:09;15.96;73.03
70851;DHT22;58475;49.662;9.636;2023-06-14T05:27:34;16.12;72.13
70851;DHT22;58475;49.662;9.636;2023-06-14T05:30:01;16.55;71.55
70851;DHT22;58475;49.662;9.636;2023-06-14T05:32:26;16.73;68.25
70851;DHT22;58475;49.662;9.636;2023-06-14T05:34:51;16.72;69.17
70851;DHT22;58475;49.662;9.636;2023-06-14T05:37:17;16.94;66.70
70851;DHT22;58475;49.662;9.636;2023-06-14T05:39:42;17.28;66.05
70851;DHT22;58475;49.662;9.636;2023-06-14T05:42:08;17.20;67.12
70851;DHT22;58475;49.662;9.636;2023-06-14T05:44:33;17.59;65.41
70851;DHT22;58475;49.662;9.636;2023-06-14T05:46:59;17.74;65.34
70851;DHT22;58475;49.662;9.636;2023-06-14T05:49:24;18.06;62.98
70851;DHT22;58475;49.662;9.636;2023-06-14T05:51:50;18.16;62.82
70851;DHT22;58475;49.662;9.636;2023-06-14T05:54:16;18.50;61.92
70851;DHT22;58475;49.662;9.636;2023-06-14T05:56:41;18.74;62.75
70851;DHT22;58475;49.662;9.636;2023-06-14T05:59:07;18.83;61.35
70851;DHT22;58475;49.662;9.636;2023-06-14T06:01:32;18.88;60.02
70851;DHT22;58475;49.662;9.636;2023-06-14T06:03:59;19.15;60.62
70851;DHT22;58475;49.662;9.636;2023-06-14T06:06:24;18.98;59.25
70851;DHT22;58475;49.662;9.636;2023-06-14T06:08:50;19.14;59.53
70851;DHT22;58475;49.662;9.636;2023-06-14T06:11:15;19.30;59.15
70851;DHT22;58475;49.662;9.636;2023-06-14T06:13:40;19.53;58.88
70851;DHT22;58475;49.662;9.636;2023-06-14T06:16:06;19.56;59.63
70851;DHT22;58475;49.662;9.636;2023-06-14T06:18:31;19.74;57.96
70851;DHT22;58475;49.662;9.636;2023-06-14T06:20:57;20.03;57.52
70851;DHT22;58475;49.662;9.636;2023-06-14T06:23:22;20.03;56.65
70851;DHT22;58475;49.662;9.636;2023-06-14T06:25:51;20.01;56.87
70851;DHT22;58475;49.662;9.636;2023-06-14T06:28:17;20.21;57.08
70851;DHT22;58475;49.662;9.636;2023-06-14T06:30:42;20.49;55.61
70851;DHT22;58475;49.662;9.636;2023-06-14T06:33:08;20.72;54.74
70851;DHT22;58475;49.662;9.636;2023-06-14T06:35:33;20.86;54.54
70851;DHT22;58475;49.662;9.636;2023-06-14T06:37:59;20.92;54.60
70851;DHT22;58475;49.662;9.636;2023-06-14T06:40:28;21.02;54.04
70851;DHT22;58475;49.662;9.636;2023-06-14T06:42:53;20.99;54.32
70851;DHT22;58475;49.662;9.636;2023-06-14T06:45:19;21.14;53.44
70851;DHT22;58475;49.662;9.636;2023-06-14T06:47:45;21.08;53.39
70851;DHT22;58475;49.662;9.636;2023-06-14T06:50:10;20.90;53.47
70851;DHT22;58475;49.662;9.636;2023-06-14T06:52:38;21.02;54.37
70851;DHT22;58475;49.662;9.636;2023-06-14T06:55:04;21.11;54.38
70851;DHT22;58475;49.662;9.636;2023-06-14T06:57:29;21.52;53.39
70851;DHT22;58475;49.662;9.636;2023-06-14T06:59:54;21.48;54.06
70851;DHT22;58475;49.662;9.636;2023-06-14T07:02:20;21.77;52.38
70851;DHT22;58475;49.662;9.636;2023-06-14T07:04:45;21.75;53.11
70851;DHT22;58475;49.662;9.636;2023-06-14T07:07:10;21.95;52.07
70851;DHT22;58475;49.662;9.636;2023-06-14T07:09:40;21.69;51.74
70851;DHT22;58475;49.662;9.636;2023-06-14T07:12:07;22.09;52.13
70851;DHT22;58475;49.662;9.636;2023-06-14T07:14:36;22.37;51.67
70851;DHT22;58475;49.662;9.636;2023-06-14T07:17:07;22.40;50.78
70851;DHT22;58475;49.662;9.636;2023-06-14T07:19:34;22.20;51.18
70851;DHT22;58475;49.662;9.636;2023-06-14T07:22:00;22.43;52.25
70851;DHT22;58475;49.662;9.636;2023-06-14T07:24:26;22.59;51.01
70851;DHT22;58475;49.662;9.636;2023-06-14T07:26:53;22.47;51.80
70851;DHT22;58475;49.662;9.636;2023-06-14T07:29:20;22.91;51.13
70851;DHT22;58475;49.662;9.636;2023-06-14T07:31:46;22.68;53.09
70851;DHT22;58475;49.662;9.636;2023-06-14T07:34:12;22.39;52.27
70851;DHT22;58475;49.662;9.636;2023-06-14T07:36:37;23.11;49.49
70851;DHT22;58475;49.662;9.636;2023-06-14T07:39:03;22.29;49.73
70851;DHT22;58475;49.662;9.636;2023-06-14T07:41:30;23.14;50.29
70851;DHT22;58475;49.662;9.636;2023-06-14T07:43:56;23.41;49.64
70851;DHT22;58475;49.662;9.636;2023-06-14T07:46:21;23.53;49.46
70851;DHT22;58475;49.662;9.636;2023-06-14T07:48:47;22.87;50.23
70851;DHT22;58475;49.662;9.636;2023-06-14T07:51:21;22.80;49.05
70851;DHT22;58475;49.662;9.636;2023-06-14T07:53:48;23.11;49.73
70851;DHT22;58475;49.662;9.636;2023-06-14T07:56:13;23.62;49.22
70851;DHT22;58475;49.662;9.636;2023-06-14T07:58:39;23.30;50.16
70851;DHT22;58475;49.662;9.636;2023-06-14T08:01:04;24.06;48.95
70851;DHT22;58475;49.662;9.636;2023-06-14T08:03:32;23.97;48.80
70851;DHT22;58475;49.662;9.636;2023-06-14T08:05:57;23.70;47.97
70851;DHT22;58475;49.662;9.636;2023-06-14T08:08:23;23.15;49.21
70851;DHT22;58475;49.662;9.636;2023-06-14T08:10:48;23.71;49.07
70851;DHT22;58475;49.662;9.636;2023-06-14T08:13:14;24.51;48.51
70851;DHT22;58475;49.662;9.636;2023-06-14T08:15:42;24.65;46.80
70851;DHT22;58475;49.662;9.636;2023-06-14T08:18:07;24.95;46.47
70851;DHT22;58475;49.662;9.636;2023-06-14T08:20:33;23.58;47.17
70851;DHT22;58475;49.662;9.636;2023-06-14T08:23:00;24.18;48.91
70851;DHT22;58475;49.662;9.636;2023-06-14T08:25:25;24.38;45.98
70851;DHT22;58475;49.662;9.636;2023-06-14T08:27:51;24.75;46.73
70851;DHT22;58475;49.662;9.636;2023-06-14T08:30:16;24.21;46.64
70851;DHT22;58475;49.662;9.636;2023-06-14T08:32:43;23.62;48.38
70851;DHT22;58475;49.662;9.636;2023-06-14T08:35:08;24.20;48.11
70851;DHT22;58475;49.662;9.636;2023-06-14T08:37:41;24.14;45.85
70851;DHT22;58475;49.662;9.636;2023-06-14T08:40:21;24.58;45.84
70851;DHT22;58475;49.662;9.636;2023-06-14T08:42:52;24.62;46.01
70851;DHT22;58475;49.662;9.636;2023-06-14T08:45:21;25.40;47.68
70851;DHT22;58475;49.662;9.636;2023-06-14T08:47:47;25.27;46.27
70851;DHT22;58475;49.662;9.636;2023-06-14T08:50:24;24.32;45.57
70851;DHT22;58475;49.662;9.636;2023-06-14T08:52:54;25.13;47.62
70851;DHT22;58475;49.662;9.636;2023-06-14T08:55:22;24.29;47.09
70851;DHT22;58475;49.662;9.636;2023-06-14T08:57:51;25.20;45.22
70851;DHT22;58475;49.662;9.636;2023-06-14T09:00:19;25.31;44.91
70851;DHT22;58475;49.662;9.636;2023-06-14T09:02:46;25.92;44.06
70851;DHT22;58475;49.662;9.636;2023-06-14T09:05:12;26.28;44.90
70851;DHT22;58475;49.662;9.636;2023-06-14T09:07:41;26.05;45.10
70851;DHT22;58475;49.662;9.636;2023-06-14T09:10:15;24.20;46.12
70851;DHT22;58475;49.662;9.636;2023-06-14T09:12:41;24.62;47.18
70851;DHT22;58475;49.662;9.636;2023-06-14T09:15:07;25.28;43.28
70851;DHT22;58475;49.662;9.636;2023-06-14T09:17:38;25.24;45.18
70851;DHT22;58475;49.662;9.636;2023-06-14T09:20:05;25.46;46.40
70851;DHT22;58475;49.662;9.636;2023-06-14T09:22:43;25.02;45.43
70851;DHT22;58475;49.662;9.636;2023-06-14T09:25:08;25.37;45.80
70851;DHT22;58475;49.662;9.636;2023-06-14T09:27:34;25.64;44.88
70851;DHT22;58475;49.662;9.636;2023-06-14T09:30:02;26.25;44.80
70851;DHT22;58475;49.662;9.636;2023-06-14T09:32:28;26.95;43.14
70851;DHT22;58475;49.662;9.636;2023-06-14T09:34:53;25.78;43.44
70851;DHT22;58475;49.662;9.636;2023-06-14T09:37:32;26.37;44.72
70851;DHT22;58475;49.662;9.636;2023-06-14T09:40:00;25.61;45.13
70851;DHT22;58475;49.662;9.636;2023-06-14T09:42:26;25.17;46.22
70851;DHT22;58475;49.662;9.636;2023-06-14T09:44:54;24.78;45.94
70851;DHT22;58475;49.662;9.636;2023-06-14T09:47:21;24.24;48.18
70851;DHT22;58475;49.662;9.636;2023-06-14T09:49:47;24.16;47.83
70851;DHT22;58475;49.662;9.636;2023-06-14T09:52:17;25.54;46.01
70851;DHT22;58475;49.662;9.636;2023-06-14T09:54:45;24.90;47.16
70851;DHT22;58475;49.662;9.636;2023-06-14T09:57:16;24.11;44.57
70851;DHT22;58475;49.662;9.636;2023-06-14T09:59:45;23.94;48.07
70851;DHT22;58475;49.662;9.636;2023-06-14T10:02:32;23.97;46.91
70851;DHT22;58475;49.662;9.636;2023-06-14T10:07:48;25.40;45.81
70851;DHT22;58475;49.662;9.636;2023-06-14T10:10:15;24.71;45.11
70851;DHT22;58475;49.662;9.636;2023-06-14T10:12:40;24.42;45.12
70851;DHT22;58475;49.662;9.636;2023-06-14T10:15:09;25.95;43.37
70851;DHT22;58475;49.662;9.636;2023-06-14T10:17:47;26.43;42.97
70851;DHT22;58475;49.662;9.636;2023-06-14T10:25:35;25.43;42.95
70851;DHT22;58475;49.662;9.636;2023-06-14T10:28:14;24.96;43.84
70851;DHT22;58475;49.662;9.636;2023-06-14T10:31:04;24.34;43.46
70851;DHT22;58475;49.662;9.636;2023-06-14T10:33:33;24.11;44.02
70851;DHT22;58475;49.662;9.636;2023-06-14T10:38:36;25.20;44.05
70851;DHT22;58475;49.662;9.636;2023-06-14T10:41:03;24.65;45.02
70851;DHT22;58475;49.662;9.636;2023-06-14T10:43:28;24.58;46.77
70851;DHT22;58475;49.662;9.636;2023-06-14T10:46:13;24.64;45.50
70851;DHT22;58475;49.662;9.636;2023-06-14T10:48:42;24.55;45.04
70851;DHT22;58475;49.662;9.636;2023-06-14T10:51:20;24.45;44.45
70851;DHT22;58475;49.662;9.636;2023-06-14T10:53:49;25.43;43.07
70851;DHT22;58475;49.662;9.636;2023-06-14T10:56:30;27.04;40.00
70851;DHT22;58475;49.662;9.636;2023-06-14T10:58:59;27.62;38.93
70851;DHT22;58475;49.662;9.636;2023-06-14T11:01:38;25.82;40.64
70851;DHT22;58475;49.662;9.636;2023-06-14T11:04:10;25.47;42.26
70851;DHT22;58475;49.662;9.636;2023-06-14T11:06:46;24.88;42.61
70851;DHT22;58475;49.662;9.636;2023-06-14T11:09:28;25.31;41.51
70851;DHT22;58475;49.662;9.636;2023-06-14T11:12:00;25.87;41.48
70851;DHT22;58475;49.662;9.636;2023-06-14T11:14:30;25.26;42.38
70851;DHT22;58475;49.662;9.636;2023-06-14T11:16:55;24.48;43.53
70851;DHT22;58475;49.662;9.636;2023-06-14T11:19:21;24.57;44.47
70851;DHT22;58475;49.662;9.636;2023-06-14T11:21:48;24.78;43.86
70851;DHT22;58475;49.662;9.636;2023-06-14T11:24:13;25.22;43.20
70851;DHT22;58475;49.662;9.636;2023-06-14T11:26:40;26.76;42.97
70851;DHT22;58475;49.662;9.636;2023-06-14T11:29:05;26.87;39.69
70851;DHT22;58475;49.662;9.636;2023-06-14T11:31:31;26.19;41.31
70851;DHT22;58475;49.662;9.636;2023-06-14T11:33:58;25.94;41.49
70851;DHT22;58475;49.662;9.636;2023-06-14T11:36:31;25.70;41.00
70851;DHT22;58475;49.662;9.636;2023-06-14T11:39:06;26.45;42.26
70851;DHT22;58475;49.662;9.636;2023-06-14T11:41:41;28.06;39.10
70851;DHT22;58475;49.662;9.636;2023-06-14T11:44:07;28.76;37.85
70851;DHT22;58475;49.662;9.636;2023-06-14T11:46:33;29.27;37.98
70851;DHT22;58475;49.662;9.636;2023-06-14T11:48:58;28.60;37.48
70851;DHT22;58475;49.662;9.636;2023-06-14T11:51:28;27.97;38.19
70851;DHT22;58475;49.662;9.636;2023-06-14T11:53:53;27.32;38.60
70851;DHT22;58475;49.662;9.636;2023-06-14T11:56:19;26.46;40.25
70851;DHT22;58475;49.662;9.636;2023-06-14T11:58:45;26.55;40.25
70851;DHT22;58475;49.662;9.636;2023-06-14T12:01:17;27.59;39.47
70851;DHT22;58475;49.662;9.636;2023-06-14T12:03:54;26.84;38.98
70851;DHT22;58475;49.662;9.636;2023-06-14T12:06:27;27.90;37.93
70851;DHT22;58475;49.662;9.636;2023-06-14T12:08:58;28.51;38.49
70851;DHT22;58475;49.662;9.636;2023-06-14T12:11:32;28.68;39.92
70851;DHT22;58475;49.662;9.636;2023-06-14T12:13:58;28.50;38.94
70851;DHT22;58475;49.662;9.636;2023-06-14T12:16:30;28.34;37.49
70851;DHT22;58475;49.662;9.636;2023-06-14T12:19:00;28.75;38.32
70851;DHT22;58475;49.662;9.636;2023-06-14T12:21:26;29.18;37.66
70851;DHT22;58475;49.662;9.636;2023-06-14T12:23:53;28.95;37.85
70851;DHT22;58475;49.662;9.636;2023-06-14T12:26:19;28.03;38.45
70851;DHT22;58475;49.662;9.636;2023-06-14T12:28:46;26.97;38.78
70851;DHT22;58475;49.662;9.636;2023-06-14T12:31:13;27.27;39.01
70851;DHT22;58475;49.662;9.636;2023-06-14T12:33:40;27.82;38.03
70851;DHT22;58475;49.662;9.636;2023-06-14T12:36:09;28.34;36.78
70851;DHT22;58475;49.662;9.636;2023-06-14T12:38:35;27.42;37.99
70851;DHT22;58475;49.662;9.636;2023-06-14T12:41:01;25.54;39.81
70851;DHT22;58475;49.662;9.636;2023-06-14T12:43:27;26.97;41.27
70851;DHT22;58475;49.662;9.636;2023-06-14T12:45:52;27.45;38.51
70851;DHT22;58475;49.662;9.636;2023-06-14T12:48:18;27.46;37.61
70851;DHT22;58475;49.662;9.636;2023-06-14T12:50:44;27.88;37.73
70851;DHT22;58475;49.662;9.636;2023-06-14T12:53:09;26.05;38.49
70851;DHT22;58475;49.662;9.636;2023-06-14T12:55:35;26.49;38.76
70851;DHT22;58475;49.662;9.636;2023-06-14T12:58:00;27.67;38.46
70851;DHT22;58475;49.662;9.636;2023-06-14T13:00:26;28.37;39.08
70851;DHT22;58475;49.662;9.636;2023-06-14T13:02:51;27.93;36.90
70851;DHT22;58475;49.662;9.636;2023-06-14T13:05:18;28.65;36.24
70851;DHT22;58475;49.662;9.636;2023-06-14T13:07:43;27.81;35.27
70851;DHT22;58475;49.662;9.636;2023-06-14T13:10:10;28.41;39.85
70851;DHT22;58475;49.662;9.636;2023-06-14T13:12:36;28.74;36.98
70851;DHT22;58475;49.662;9.636;2023-06-14T13:15:01;29.06;36.20
70851;DHT22;58475;49.662;9.636;2023-06-14T13:17:26;29.46;35.15
70851;DHT22;58475;49.662;9.636;2023-06-14T13:19:52;27.78;36.62
70851;DHT22;58475;49.662;9.636;2023-06-14T13:22:17;27.93;38.28
70851;DHT22;58475;49.662;9.636;2023-06-14T13:24:43;27.30;38.34
70851;DHT22;58475;49.662;9.636;2023-06-14T13:27:08;26.33;39.61
70851;DHT22;58475;49.662;9.636;2023-06-14T13:29:33;25.41;39.05
70851;DHT22;58475;49.662;9.636;2023-06-14T13:32:01;25.99;39.66
70851;DHT22;58475;49.662;9.636;2023-06-14T13:34:27;26.15;39.35
70851;DHT22;58475;49.662;9.636;2023-06-14T13:36:52;26.66;38.34
70851;DHT22;58475;49.662;9.636;2023-06-14T13:39:18;27.38;36.65
70851;DHT22;58475;49.662;9.636;2023-06-14T13:41:44;27.61;37.18
70851;DHT22;58475;49.662;9.636;2023-06-14T13:44:09;27.07;37.33
70851;DHT22;58475;49.662;9.636;2023-06-14T13:46:39;27.32;36.37
70851;DHT22;58475;49.662;9.636;2023-06-14T13:49:04;28.02;35.69
70851;DHT22;58475;49.662;9.636;2023-06-14T13:51:30;27.65;35.82
70851;DHT22;58475;49.662;9.636;2023-06-14T13:53:55;28.88;36.04
70851;DHT22;58475;49.662;9.636;2023-06-14T13:56:21;28.31;34.61
70851;DHT22;58475;49.662;9.636;2023-06-14T13:58:47;29.08;35.35
70851;DHT22;58475;49.662;9.636;2023-06-14T14:01:13;28.64;36.20
70851;DHT22;58475;49.662;9.636;2023-06-14T14:03:38;27.31;37.43
70851;DHT22;58475;49.662;9.636;2023-06-14T14:06:04;26.31;37.68
70851;DHT22;58475;49.662;9.636;2023-06-14T14:08:32;26.46;37.46
70851;DHT22;58475;49.662;9.636;2023-06-14T14:11:01;26.26;36.83
70851;DHT22;58475;49.662;9.636;2023-06-14T14:13:34;25.88;37.60
70851;DHT22;58475;49.662;9.636;2023-06-14T14:16:09;26.77;36.21
70851;DHT22;58475;49.662;9.636;2023-06-14T14:18:44;27.61;37.23
70851;DHT22;58475;49.662;9.636;2023-06-14T14:21:12;27.46;35.07
70851;DHT22;58475;49.662;9.636;2023-06-14T14:23:41;27.89;36.70
70851;DHT22;58475;49.662;9.636;2023-06-14T14:26:06;27.67;35.29
70851;DHT22;58475;49.662;9.636;2023-06-14T14:28:32;27.88;34.56
70851;DHT22;58475;49.662;9.636;2023-06-14T14:31:01;27.61;35.00
70851;DHT22;58475;49.662;9.636;2023-06-14T14:33:26;26.84;34.96
70851;DHT22;58475;49.662;9.636;2023-06-14T14:35:51;26.43;36.37
70851;DHT22;58475;49.662;9.636;2023-06-14T14:38:17;27.15;36.83
70851;DHT22;58475;49.662;9.636;2023-06-14T14:40:43;27.56;35.20
70851;DHT22;58475;49.662;9.636;2023-06-14T14:43:09;26.76;36.19
70851;DHT22;58475;49.662;9.636;2023-06-14T14:45:34;26.08;39.36
70851;DHT22;58475;49.662;9.636;2023-06-14T14:48:00;26.50;37.88
70851;DHT22;58475;49.662;9.636;2023-06-14T14:50:26;26.33;38.05
70851;DHT22;58475;49.662;9.636;2023-06-14T14:52:51;25.94;39.06
70851;DHT22;58475;49.662;9.636;2023-06-14T14:55:17;25.75;38.05
70851;DHT22;58475;49.662;9.636;2023-06-14T14:57:43;25.80;39.56
70851;DHT22;58475;49.662;9.636;2023-06-14T15:00:09;25.63;40.11
70851;DHT22;58475;49.662;9.636;2023-06-14T15:02:34;25.64;39.90
70851;DHT22;58475;49.662;9.636;2023-06-14T15:05:00;25.53;38.95
70851;DHT22;58475;49.662;9.636;2023-06-14T15:07:30;25.80;39.41
70851;DHT22;58475;49.662;9.636;2023-06-14T15:09:56;25.43;38.92
70851;DHT22;58475;49.662;9.636;2023-06-14T15:12:22;25.38;38.84
70851;DHT22;58475;49.662;9.636;2023-06-14T15:14:53;25.27;38.88
70851;DHT22;58475;49.662;9.636;2023-06-14T15:17:22;25.40;39.63
70851;DHT22;58475;49.662;9.636;2023-06-14T15:19:49;25.67;38.78
70851;DHT22;58475;49.662;9.636;2023-06-14T15:22:14;26.59;40.82
70851;DHT22;58475;49.662;9.636;2023-06-14T15:24:43;25.98;37.01
70851;DHT22;58475;49.662;9.636;2023-06-14T15:27:09;26.05;36.69
70851;DHT22;58475;49.662;9.636;2023-06-14T15:29:36;26.21;38.72
70851;DHT22;58475;49.662;9.636;2023-06-14T15:32:02;26.76;39.29
70851;DHT22;58475;49.662;9.636;2023-06-14T15:34:27;27.31;40.97
70851;DHT22;58475;49.662;9.636;2023-06-14T15:36:53;28.02;36.34
70851;DHT22;58475;49.662;9.636;2023-06-14T15:39:18;28.64;37.11
70851;DHT22;58475;49.662;9.636;2023-06-14T15:41:43;27.81;34.68
70851;DHT22;58475;49.662;9.636;2023-06-14T15:44:09;27.67;35.39
70851;DHT22;58475;49.662;9.636;2023-06-14T15:46:35;26.88;36.34